Romoos, Switzerland

01:11 PM CEST am 26. März 2017 (GMT +0200)
10 | | Change Station

Höhe 2332 ft 46.96 °N, 8.02 °E | Updated 18 minutes ago

Bedeckt
Bedeckt
45.3 °F
gefühlte 45 °F
N
1.2
Wind Wechselnd Wind aus Süd-Südost
Gusts 3.7 mph

Heute
Max. -- | schwach -- °F
--% Regenrisiko
Gestern
Max. -- | schwach -- °F
Precip. -- inch
Druck 30.15 inch
Sichtweite 6.2 Meilen
Wolken Few 1200 ft
Teils Wolkig 1500 ft
Bedeckt 1800 ft
Windchill 45 °F
Taupunkt 41 °F
Feuchtigkeit 84%
Regen 0.00 inch
Schneehöhe Nicht verfügbar..
7:18 AM 7:48 PM
Letztes Viertel, 4% visible
METAR LSMM 261050Z AUTO 27006KT 240V310 9999NDV FEW012 SCT015 OVC018 07/06 Q1021 RMK
Druck 30.15 inch
Sichtweite 6.2 Meilen
Wolken Few 1200 ft
Teils Wolkig 1500 ft
Bedeckt 1800 ft
Windchill 45 °F
Taupunkt 41 °F
Feuchtigkeit 84%
Regen 0.00 inch
Schneehöhe Nicht verfügbar..
7:18 AM 7:48 PM
Letztes Viertel, 4% visible
METAR LSMM 261050Z AUTO 27006KT 240V310 9999NDV FEW012 SCT015 OVC018 07/06 Q1021 RMK

Get Severe Weather Alerts

Thanks for signing up!

Be on the lookout for a verification email in your inbox.

You'll start receiving the daily forecast at 8 AM.

×

10-Day Weather Forecast

×

Almanac

Astronomie

Mar. 26, 2017 Aufgang Untergang
Genaue Zeit
Bürgerliche Dämmerung
Nautische Dämmerung
Astronomische Dämmerung
Mond
Länge des sichtbaren Lichts
Tageslänge
Tomorrow will be .
, % of the Moon is Illuminated

Heutige Rekorde

Country Highs Country Lows

Community

WunderPhotos

Upload Photos

1,962,540 Fotos hochgeladen!

WunderBlog® & News

Nearby

Luftqualität

  Luftqualität LQ Index Schadstoff
Not available.

Schneehöhe

Station Depth Höhe

Erdbebenaktivität

Stadt Distance Mag. Time & Date
Minimum magnitude displayed is 2.5.

Erdbebenaktivität

Stadt Distance Mag. Time & Date
Minimum magnitude displayed is 2.5.

küstennahe Wassertemperaturen

Ort Temperatur

Stations

Wetterstationen in der Umgebung

Stationsstandort Temp. Windchill Taupunkt Feuchtigkeit Wind Precip. Höhe Aktualisiert Art